sensor_id;sensor_type;location;lat;lon;timestamp;pressure;altitude;pressure_sealevel;temperature;humidity
17311;BME280;8773;43.300;0.394;2023-02-11T00:00:39;101609.59;;;2.00;63.07
17311;BME280;8773;43.300;0.394;2023-02-11T00:03:08;101611.59;;;1.94;62.76
17311;BME280;8773;43.300;0.394;2023-02-11T00:05:36;101609.41;;;1.82;63.46
17311;BME280;8773;43.300;0.394;2023-02-11T00:08:04;101605.25;;;1.74;63.46
17311;BME280;8773;43.300;0.394;2023-02-11T00:10:32;101600.00;;;1.74;63.32
17311;BME280;8773;43.300;0.394;2023-02-11T00:13:00;101611.44;;;1.73;63.33
17311;BME280;8773;43.300;0.394;2023-02-11T00:15:29;101607.41;;;1.63;64.37
17311;BME280;8773;43.300;0.394;2023-02-11T00:17:57;101609.06;;;1.66;64.08
17311;BME280;8773;43.300;0.394;2023-02-11T00:20:26;101606.38;;;1.67;63.43
17311;BME280;8773;43.300;0.394;2023-02-11T00:22:54;101591.28;;;1.72;63.32
17311;BME280;8773;43.300;0.394;2023-02-11T00:25:22;101606.28;;;1.70;63.35
17311;BME280;8773;43.300;0.394;2023-02-11T00:27:50;101600.09;;;1.71;63.35
17311;BME280;8773;43.300;0.394;2023-02-11T00:30:18;101591.28;;;1.72;63.46
17311;BME280;8773;43.300;0.394;2023-02-11T00:32:46;101595.50;;;1.53;64.06
17311;BME280;8773;43.300;0.394;2023-02-11T00:35:15;101589.13;;;1.59;63.57
17311;BME280;8773;43.300;0.394;2023-02-11T00:37:44;101588.13;;;1.63;63.65
17311;BME280;8773;43.300;0.394;2023-02-11T00:40:12;101581.19;;;1.60;63.68
17311;BME280;8773;43.300;0.394;2023-02-11T00:42:41;101581.13;;;1.62;63.60
17311;BME280;8773;43.300;0.394;2023-02-11T00:45:09;101586.56;;;1.57;63.85
17311;BME280;8773;43.300;0.394;2023-02-11T00:47:37;101580.38;;;1.58;64.00
17311;BME280;8773;43.300;0.394;2023-02-11T00:50:06;101580.72;;;1.49;64.27
17311;BME280;8773;43.300;0.394;2023-02-11T00:52:34;101546.38;;;1.27;64.25
17311;BME280;8773;43.300;0.394;2023-02-11T00:55:04;101577.28;;;1.47;63.94
17311;BME280;8773;43.300;0.394;2023-02-11T00:57:32;101572.22;;;1.41;64.51
17311;BME280;8773;43.300;0.394;2023-02-11T01:00:00;101572.16;;;1.42;64.55
17311;BME280;8773;43.300;0.394;2023-02-11T01:02:28;101572.38;;;1.36;64.43
17311;BME280;8773;43.300;0.394;2023-02-11T01:04:56;101566.19;;;1.37;64.55
17311;BME280;8773;43.300;0.394;2023-02-11T01:07:25;101566.97;;;1.41;64.14
17311;BME280;8773;43.300;0.394;2023-02-11T01:09:53;101570.59;;;1.37;63.85
17311;BME280;8773;43.300;0.394;2023-02-11T01:12:23;101566.19;;;1.37;63.89
17311;BME280;8773;43.300;0.394;2023-02-11T01:14:51;101558.47;;;1.33;64.25
17311;BME280;8773;43.300;0.394;2023-02-11T01:17:19;101558.50;;;1.31;63.60
17311;BME280;8773;43.300;0.394;2023-02-11T01:19:47;101564.59;;;1.33;63.73
17311;BME280;8773;43.300;0.394;2023-02-11T01:22:15;101560.22;;;1.32;63.50
17311;BME280;8773;43.300;0.394;2023-02-11T01:24:43;101551.78;;;1.23;63.51
17311;BME280;8773;43.300;0.394;2023-02-11T01:27:11;101557.97;;;1.22;63.73
17311;BME280;8773;43.300;0.394;2023-02-11T01:29:41;101559.78;;;1.20;63.52
17311;BME280;8773;43.300;0.394;2023-02-11T01:32:09;101565.16;;;1.17;64.02
17311;BME280;8773;43.300;0.394;2023-02-11T01:34:37;101555.66;;;1.13;63.74
17311;BME280;8773;43.300;0.394;2023-02-11T01:37:05;101554.91;;;1.09;64.25
17311;BME280;8773;43.300;0.394;2023-02-11T01:39:33;101550.59;;;1.06;64.19
17311;BME280;8773;43.300;0.394;2023-02-11T01:42:02;101549.66;;;1.09;64.15
17311;BME280;8773;43.300;0.394;2023-02-11T01:44:32;101546.09;;;1.10;64.35
17311;BME280;8773;43.300;0.394;2023-02-11T01:47:02;101546.19;;;1.07;64.50
17311;BME280;8773;43.300;0.394;2023-02-11T01:49:31;101546.16;;;1.08;65.02
17311;BME280;8773;43.300;0.394;2023-02-11T01:52:03;101554.25;;;1.02;64.38
17311;BME280;8773;43.300;0.394;2023-02-11T01:54:35;101558.53;;;1.05;64.57
17311;BME280;8773;43.300;0.394;2023-02-11T01:57:24;101558.88;;;0.94;64.96
17311;BME280;8773;43.300;0.394;2023-02-11T02:00:00;101552.78;;;0.94;65.16
17311;BME280;8773;43.300;0.394;2023-02-11T02:02:40;101546.56;;;0.96;64.77
17311;BME280;8773;43.300;0.394;2023-02-11T02:05:18;101545.66;;;0.97;65.38
17311;BME280;8773;43.300;0.394;2023-02-11T02:07:55;101536.34;;;0.87;64.73
17311;BME280;8773;43.300;0.394;2023-02-11T02:10:27;101541.53;;;0.89;65.08
17311;BME280;8773;43.300;0.394;2023-02-11T02:12:55;101539.72;;;0.91;65.10
17311;BME280;8773;43.300;0.394;2023-02-11T02:15:26;101533.19;;;0.76;65.35
17311;BME280;8773;43.300;0.394;2023-02-11T02:18:05;101537.72;;;0.71;65.78
17311;BME280;8773;43.300;0.394;2023-02-11T02:21:00;101541.84;;;0.80;65.45
17311;BME280;8773;43.300;0.394;2023-02-11T02:23:45;101533.09;;;0.79;65.18
17311;BME280;8773;43.300;0.394;2023-02-11T02:26:52;101532.47;;;0.71;65.52
17311;BME280;8773;43.300;0.394;2023-02-11T02:32:58;101530.34;;;0.82;65.08
17311;BME280;8773;43.300;0.394;2023-02-11T02:35:54;101526.09;;;0.78;64.21
17311;BME280;8773;43.300;0.394;2023-02-11T02:38:29;101522.72;;;0.74;64.71
17311;BME280;8773;43.300;0.394;2023-02-11T02:41:01;101515.00;;;0.70;64.62
17311;BME280;8773;43.300;0.394;2023-02-11T02:43:32;101514.16;;;0.69;64.78
17311;BME280;8773;43.300;0.394;2023-02-11T02:46:12;101511.44;;;0.71;65.02
17311;BME280;8773;43.300;0.394;2023-02-11T02:48:42;101502.88;;;0.66;65.15
17311;BME280;8773;43.300;0.394;2023-02-11T02:51:24;101505.31;;;0.70;65.11
17311;BME280;8773;43.300;0.394;2023-02-11T02:54:07;101501.72;;;0.73;64.85
17311;BME280;8773;43.300;0.394;2023-02-11T02:56:43;101509.75;;;0.70;64.62
17311;BME280;8773;43.300;0.394;2023-02-11T02:59:24;101495.13;;;0.61;64.54
17311;BME280;8773;43.300;0.394;2023-02-11T03:02:00;101495.19;;;0.60;65.13
17311;BME280;8773;43.300;0.394;2023-02-11T03:04:37;101493.94;;;0.43;65.77
17311;BME280;8773;43.300;0.394;2023-02-11T03:07:16;101495.63;;;0.46;65.45
17311;BME280;8773;43.300;0.394;2023-02-11T03:09:55;101496.41;;;0.48;65.46
17311;BME280;8773;43.300;0.394;2023-02-11T03:12:27;101500.09;;;0.42;65.55
17311;BME280;8773;43.300;0.394;2023-02-11T03:14:58;101494.56;;;0.52;64.91
17311;BME280;8773;43.300;0.394;2023-02-11T03:17:29;101492.84;;;0.51;64.69
17311;BME280;8773;43.300;0.394;2023-02-11T03:20:01;101495.50;;;0.49;64.78
17311;BME280;8773;43.300;0.394;2023-02-11T03:22:33;101494.47;;;0.55;64.91
17311;BME280;8773;43.300;0.394;2023-02-11T03:25:04;101498.09;;;0.51;65.02
17311;BME280;8773;43.300;0.394;2023-02-11T03:27:39;101487.88;;;0.41;65.59
17311;BME280;8773;43.300;0.394;2023-02-11T03:30:12;101480.94;;;0.39;65.57
17311;BME280;8773;43.300;0.394;2023-02-11T03:32:48;101485.34;;;0.38;65.61
17311;BME280;8773;43.300;0.394;2023-02-11T03:35:21;101481.28;;;0.28;65.89
17311;BME280;8773;43.300;0.394;2023-02-11T03:37:53;101485.75;;;0.26;65.94
17311;BME280;8773;43.300;0.394;2023-02-11T03:40:25;101490.13;;;0.26;65.97
17311;BME280;8773;43.300;0.394;2023-02-11T03:42:57;101476.94;;;0.27;65.73
17311;BME280;8773;43.300;0.394;2023-02-11T03:45:26;101482.13;;;0.01;66.33
17311;BME280;8773;43.300;0.394;2023-02-11T03:48:02;101482.72;;;0.10;65.95
17311;BME280;8773;43.300;0.394;2023-02-11T03:50:34;101478.16;;;0.17;65.59
17311;BME280;8773;43.300;0.394;2023-02-11T03:53:03;101474.44;;;0.24;65.62
17311;BME280;8773;43.300;0.394;2023-02-11T03:55:34;101476.75;;;0.33;65.54
17311;BME280;8773;43.300;0.394;2023-02-11T03:58:03;101470.56;;;0.34;65.27
17311;BME280;8773;43.300;0.394;2023-02-11T04:00:32;101472.38;;;0.32;65.29
17311;BME280;8773;43.300;0.394;2023-02-11T04:03:00;101466.28;;;0.32;65.29
17311;BME280;8773;43.300;0.394;2023-02-11T04:05:29;101474.31;;;0.27;65.31
17311;BME280;8773;43.300;0.394;2023-02-11T04:07:58;101476.34;;;0.19;65.69
17311;BME280;8773;43.300;0.394;2023-02-11T04:10:27;101474.53;;;0.21;65.47
17311;BME280;8773;43.300;0.394;2023-02-11T04:12:55;101473.63;;;0.22;65.24
17311;BME280;8773;43.300;0.394;2023-02-11T04:15:23;101469.16;;;0.24;65.25
17311;BME280;8773;43.300;0.394;2023-02-11T04:17:51;101475.28;;;0.25;65.10
17311;BME280;8773;43.300;0.394;2023-02-11T04:20:19;101476.16;;;0.25;64.91
17311;BME280;8773;43.300;0.394;2023-02-11T04:22:47;101477.28;;;0.17;64.95
17311;BME280;8773;43.300;0.394;2023-02-11T04:25:16;101476.38;;;0.18;64.94
17311;BME280;8773;43.300;0.394;2023-02-11T04:27:44;101476.47;;;0.15;65.21
17311;BME280;8773;43.300;0.394;2023-02-11T04:30:12;101478.91;;;0.21;65.23
17311;BME280;8773;43.300;0.394;2023-02-11T04:32:40;101472.78;;;0.20;64.79
17311;BME280;8773;43.300;0.394;2023-02-11T04:35:09;101477.41;;;0.12;65.31
17311;BME280;8773;43.300;0.394;2023-02-11T04:37:37;101479.22;;;0.10;65.22
17311;BME280;8773;43.300;0.394;2023-02-11T04:40:06;101475.75;;;0.09;65.20
17311;BME280;8773;43.300;0.394;2023-02-11T04:42:35;101472.84;;;-0.11;65.79
17311;BME280;8773;43.300;0.394;2023-02-11T04:45:03;101477.25;;;-0.11;65.82
17311;BME280;8773;43.300;0.394;2023-02-11T04:47:32;101458.13;;;-0.16;65.83
17311;BME280;8773;43.300;0.394;2023-02-11T04:50:01;101464.94;;;-0.09;65.73
17311;BME280;8773;43.300;0.394;2023-02-11T04:52:29;101464.38;;;-0.19;65.94
17311;BME280;8773;43.300;0.394;2023-02-11T04:54:57;101461.53;;;-0.13;65.39
17311;BME280;8773;43.300;0.394;2023-02-11T04:57:25;101454.81;;;-0.21;66.31
17311;BME280;8773;43.300;0.394;2023-02-11T04:59:55;101456.31;;;-0.14;65.61
17311;BME280;8773;43.300;0.394;2023-02-11T05:02:23;101457.34;;;-0.18;65.97
17311;BME280;8773;43.300;0.394;2023-02-11T05:04:51;101452.78;;;-0.13;66.03
17311;BME280;8773;43.300;0.394;2023-02-11T05:07:19;101452.53;;;-0.04;65.55
17311;BME280;8773;43.300;0.394;2023-02-11T05:09:47;101453.53;;;-0.08;65.65
17311;BME280;8773;43.300;0.394;2023-02-11T05:12:15;101447.41;;;-0.09;65.36
17311;BME280;8773;43.300;0.394;2023-02-11T05:14:42;101445.75;;;-0.11;65.23
17311;BME280;8773;43.300;0.394;2023-02-11T05:17:12;101443.97;;;-0.11;65.14
17311;BME280;8773;43.300;0.394;2023-02-11T05:19:40;101450.16;;;-0.13;65.26
17311;BME280;8773;43.300;0.394;2023-02-11T05:22:08;101445.66;;;-0.08;65.15
17311;BME280;8773;43.300;0.394;2023-02-11T05:24:36;101446.69;;;-0.14;65.16
17311;BME280;8773;43.300;0.394;2023-02-11T05:27:04;101445.75;;;-0.11;64.87
17311;BME280;8773;43.300;0.394;2023-02-11T05:29:32;101438.00;;;-0.16;65.43
17311;BME280;8773;43.300;0.394;2023-02-11T05:32:00;101444.09;;;-0.15;65.67
17311;BME280;8773;43.300;0.394;2023-02-11T05:34:29;101444.94;;;-0.13;65.13
17311;BME280;8773;43.300;0.394;2023-02-11T05:36:57;101446.59;;;-0.11;65.10
17311;BME280;8773;43.300;0.394;2023-02-11T05:39:26;101447.75;;;-0.19;65.16
17311;BME280;8773;43.300;0.394;2023-02-11T05:41:54;101443.25;;;-0.16;65.02
17311;BME280;8773;43.300;0.394;2023-02-11T05:44:22;101445.94;;;-0.17;64.91
17311;BME280;8773;43.300;0.394;2023-02-11T05:46:50;101436.34;;;-0.18;64.64
17311;BME280;8773;43.300;0.394;2023-02-11T05:49:18;101435.53;;;-0.20;64.83
17311;BME280;8773;43.300;0.394;2023-02-11T05:51:48;101433.88;;;-0.23;64.91
17311;BME280;8773;43.300;0.394;2023-02-11T05:54:16;101429.59;;;-0.27;64.99
17311;BME280;8773;43.300;0.394;2023-02-11T05:56:43;101432.31;;;-0.30;65.15
17311;BME280;8773;43.300;0.394;2023-02-11T05:59:12;101426.38;;;-0.37;65.67
17311;BME280;8773;43.300;0.394;2023-02-11T06:01:40;101430.66;;;-0.33;65.53
17311;BME280;8773;43.300;0.394;2023-02-11T06:04:08;101433.28;;;-0.33;65.53
17311;BME280;8773;43.300;0.394;2023-02-11T06:06:37;101437.69;;;-0.35;65.79
17311;BME280;8773;43.300;0.394;2023-02-11T06:09:06;101435.94;;;-0.34;65.56
17311;BME280;8773;43.300;0.394;2023-02-11T06:11:34;101433.72;;;-0.48;65.58
17311;BME280;8773;43.300;0.394;2023-02-11T06:14:02;101432.63;;;-0.41;65.54
17311;BME280;8773;43.300;0.394;2023-02-11T06:16:30;101435.22;;;-0.39;65.47
17311;BME280;8773;43.300;0.394;2023-02-11T06:18:58;101439.50;;;-0.37;64.95
17311;BME280;8773;43.300;0.394;2023-02-11T06:21:26;101440.50;;;-0.41;65.08
17311;BME280;8773;43.300;0.394;2023-02-11T06:24:10;101444.94;;;-0.43;65.31
17311;BME280;8773;43.300;0.394;2023-02-11T06:26:39;101446.47;;;-0.36;64.99
17311;BME280;8773;43.300;0.394;2023-02-11T06:29:07;101448.28;;;-0.38;65.30
17311;BME280;8773;43.300;0.394;2023-02-11T06:31:36;101447.56;;;-0.43;65.18
17311;BME280;8773;43.300;0.394;2023-02-11T06:34:04;101445.88;;;-0.45;65.12
17311;BME280;8773;43.300;0.394;2023-02-11T06:36:32;101448.81;;;-0.56;65.61
17311;BME280;8773;43.300;0.394;2023-02-11T06:39:00;101446.22;;;-0.58;65.20
17311;BME280;8773;43.300;0.394;2023-02-11T06:41:30;101445.28;;;-0.55;65.20
17311;BME280;8773;43.300;0.394;2023-02-11T06:43:58;101449.25;;;-0.71;65.44
17311;BME280;8773;43.300;0.394;2023-02-11T06:46:26;101451.75;;;-0.67;65.56
17311;BME280;8773;43.300;0.394;2023-02-11T06:48:54;101448.41;;;-0.72;65.96
17311;BME280;8773;43.300;0.394;2023-02-11T06:51:22;101457.94;;;-0.69;65.43
17311;BME280;8773;43.300;0.394;2023-02-11T06:53:51;101449.53;;;-0.82;65.99
17311;BME280;8773;43.300;0.394;2023-02-11T06:56:20;101449.50;;;-0.80;66.08
17311;BME280;8773;43.300;0.394;2023-02-11T06:58:52;101444.91;;;-0.72;65.92
17311;BME280;8773;43.300;0.394;2023-02-11T07:01:22;101443.34;;;-0.79;66.38
17311;BME280;8773;43.300;0.394;2023-02-11T07:03:51;101444.22;;;-0.79;66.54
17311;BME280;8773;43.300;0.394;2023-02-11T07:06:20;101451.38;;;-0.85;66.25
17311;BME280;8773;43.300;0.394;2023-02-11T07:08:49;101438.97;;;-0.79;66.39
17311;BME280;8773;43.300;0.394;2023-02-11T07:11:19;101447.75;;;-0.80;66.15
17311;BME280;8773;43.300;0.394;2023-02-11T07:13:51;101450.13;;;-0.71;65.60
17311;BME280;8773;43.300;0.394;2023-02-11T07:16:20;101444.09;;;-0.74;65.76
17311;BME280;8773;43.300;0.394;2023-02-11T07:18:48;101438.75;;;-0.71;65.57
17311;BME280;8773;43.300;0.394;2023-02-11T07:21:18;101438.63;;;-0.67;65.80
17311;BME280;8773;43.300;0.394;2023-02-11T07:23:47;101440.66;;;-0.76;66.21
17311;BME280;8773;43.300;0.394;2023-02-11T07:26:17;101444.19;;;-0.77;65.85
17311;BME280;8773;43.300;0.394;2023-02-11T07:28:45;101445.19;;;-0.83;66.14
17311;BME280;8773;43.300;0.394;2023-02-11T07:31:16;101432.53;;;-0.67;66.19
17311;BME280;8773;43.300;0.394;2023-02-11T07:33:45;101445.22;;;-0.53;65.50
17311;BME280;8773;43.300;0.394;2023-02-11T07:36:15;101438.81;;;-0.43;65.02
17311;BME280;8773;43.300;0.394;2023-02-11T07:38:43;101432.53;;;-0.38;65.00
17311;BME280;8773;43.300;0.394;2023-02-11T07:41:13;101435.97;;;-0.36;64.93
17311;BME280;8773;43.300;0.394;2023-02-11T07:43:41;101442.59;;;-0.23;64.32
17311;BME280;8773;43.300;0.394;2023-02-11T07:46:11;101438.78;;;-0.12;64.10
17311;BME280;8773;43.300;0.394;2023-02-11T07:48:41;101442.78;;;-0.01;64.27
17311;BME280;8773;43.300;0.394;2023-02-11T07:51:11;101443.28;;;0.12;63.61
17311;BME280;8773;43.300;0.394;2023-02-11T07:53:40;101442.13;;;0.21;63.85
17311;BME280;8773;43.300;0.394;2023-02-11T07:56:08;101448.78;;;0.31;63.64
17311;BME280;8773;43.300;0.394;2023-02-11T07:58:37;101449.28;;;0.43;63.28
17311;BME280;8773;43.300;0.394;2023-02-11T08:01:09;101442.75;;;0.55;62.90
17311;BME280;8773;43.300;0.394;2023-02-11T08:03:39;101445.94;;;0.65;62.43
17311;BME280;8773;43.300;0.394;2023-02-11T08:06:11;101450.97;;;0.71;61.98
17311;BME280;8773;43.300;0.394;2023-02-11T08:08:40;101450.47;;;0.86;61.72
17311;BME280;8773;43.300;0.394;2023-02-11T08:11:10;101451.28;;;0.88;61.06
17311;BME280;8773;43.300;0.394;2023-02-11T08:13:38;101449.25;;;0.96;60.84
17311;BME280;8773;43.300;0.394;2023-02-11T08:16:07;101452.47;;;1.04;60.72
17311;BME280;8773;43.300;0.394;2023-02-11T08:18:35;101454.41;;;0.99;60.60
17311;BME280;8773;43.300;0.394;2023-02-11T08:21:04;101462.09;;;1.05;60.14
17311;BME280;8773;43.300;0.394;2023-02-11T08:23:34;101463.69;;;1.09;60.38
17311;BME280;8773;43.300;0.394;2023-02-11T08:26:04;101460.63;;;1.22;59.89
17311;BME280;8773;43.300;0.394;2023-02-11T08:28:34;101453.31;;;1.30;60.19
17311;BME280;8773;43.300;0.394;2023-02-11T08:31:04;101454.59;;;1.43;59.40
17311;BME280;8773;43.300;0.394;2023-02-11T08:33:33;101459.13;;;1.63;59.19
17311;BME280;8773;43.300;0.394;2023-02-11T08:36:07;101459.28;;;1.82;58.30
17311;BME280;8773;43.300;0.394;2023-02-11T08:38:36;101457.44;;;2.07;58.11
17311;BME280;8773;43.300;0.394;2023-02-11T08:41:05;101455.13;;;2.21;57.43
17311;BME280;8773;43.300;0.394;2023-02-11T08:43:33;101445.81;;;2.34;57.38
17311;BME280;8773;43.300;0.394;2023-02-11T08:46:02;101452.69;;;2.38;56.82
17311;BME280;8773;43.300;0.394;2023-02-11T08:48:30;101442.47;;;2.51;56.36
17311;BME280;8773;43.300;0.394;2023-02-11T08:50:58;101444.00;;;2.57;55.52
17311;BME280;8773;43.300;0.394;2023-02-11T08:53:26;101449.81;;;2.65;55.79
17311;BME280;8773;43.300;0.394;2023-02-11T08:55:55;101445.53;;;2.62;56.15
17311;BME280;8773;43.300;0.394;2023-02-11T08:58:23;101447.66;;;2.74;55.45
17311;BME280;8773;43.300;0.394;2023-02-11T09:00:51;101445.03;;;2.95;54.85
17311;BME280;8773;43.300;0.394;2023-02-11T09:03:20;101443.38;;;2.92;54.88
17311;BME280;8773;43.300;0.394;2023-02-11T09:05:49;101446.03;;;3.13;55.11
17311;BME280;8773;43.300;0.394;2023-02-11T09:08:19;101447.16;;;3.27;54.46
17311;BME280;8773;43.300;0.394;2023-02-11T09:10:47;101439.00;;;3.32;54.59
17311;BME280;8773;43.300;0.394;2023-02-11T09:13:17;101437.41;;;3.48;54.13
17311;BME280;8773;43.300;0.394;2023-02-11T09:15:45;101424.72;;;3.56;54.00
17311;BME280;8773;43.300;0.394;2023-02-11T09:18:13;101428.13;;;3.58;53.84
17311;BME280;8773;43.300;0.394;2023-02-11T09:20:41;101428.00;;;3.61;52.87
17311;BME280;8773;43.300;0.394;2023-02-11T09:23:09;101431.00;;;3.72;52.85
17311;BME280;8773;43.300;0.394;2023-02-11T09:25:38;101429.69;;;3.81;52.32
17311;BME280;8773;43.300;0.394;2023-02-11T09:28:07;101430.00;;;3.94;52.66
17311;BME280;8773;43.300;0.394;2023-02-11T09:30:37;101421.13;;;3.95;52.51
17311;BME280;8773;43.300;0.394;2023-02-11T09:33:05;101430.50;;;4.21;51.68
17311;BME280;8773;43.300;0.394;2023-02-11T09:35:33;101427.81;;;4.39;51.24
17311;BME280;8773;43.300;0.394;2023-02-11T09:38:01;101431.59;;;4.53;50.78
17311;BME280;8773;43.300;0.394;2023-02-11T09:40:29;101426.13;;;4.73;50.31
17311;BME280;8773;43.300;0.394;2023-02-11T09:43:02;101425.38;;;4.88;50.19
17311;BME280;8773;43.300;0.394;2023-02-11T09:45:31;101423.03;;;4.99;48.95
17311;BME280;8773;43.300;0.394;2023-02-11T09:48:03;101431.25;;;5.10;48.91
17311;BME280;8773;43.300;0.394;2023-02-11T09:50:33;101424.06;;;5.30;49.10
17311;BME280;8773;43.300;0.394;2023-02-11T09:53:05;101431.97;;;5.47;48.39
17311;BME280;8773;43.300;0.394;2023-02-11T09:55:38;101431.94;;;5.64;47.20
17311;BME280;8773;43.300;0.394;2023-02-11T09:58:12;101432.81;;;5.81;46.79
17311;BME280;8773;43.300;0.394;2023-02-11T10:00:44;101429.06;;;5.85;46.22
17311;BME280;8773;43.300;0.394;2023-02-11T10:03:32;101427.00;;;6.05;45.94
17311;BME280;8773;43.300;0.394;2023-02-11T10:06:14;101424.34;;;6.21;45.78
17311;BME280;8773;43.300;0.394;2023-02-11T10:08:54;101429.34;;;6.41;45.47
17311;BME280;8773;43.300;0.394;2023-02-11T10:11:32;101425.78;;;6.58;45.80
17311;BME280;8773;43.300;0.394;2023-02-11T10:14:12;101420.03;;;6.66;45.92
17311;BME280;8773;43.300;0.394;2023-02-11T10:16:57;101420.91;;;6.81;44.75
17311;BME280;8773;43.300;0.394;2023-02-11T10:19:43;101421.91;;;6.94;45.85
17311;BME280;8773;43.300;0.394;2023-02-11T10:22:19;101420.41;;;7.04;45.02
17311;BME280;8773;43.300;0.394;2023-02-11T10:24:51;101426.13;;;7.12;44.96
17311;BME280;8773;43.300;0.394;2023-02-11T10:27:25;101421.28;;;7.19;44.16
17311;BME280;8773;43.300;0.394;2023-02-11T10:29:58;101419.28;;;7.36;43.61
17311;BME280;8773;43.300;0.394;2023-02-11T10:32:35;101424.91;;;7.46;42.83
17311;BME280;8773;43.300;0.394;2023-02-11T10:35:13;101417.41;;;7.53;42.59
17311;BME280;8773;43.300;0.394;2023-02-11T10:37:43;101414.75;;;7.53;42.42
17311;BME280;8773;43.300;0.394;2023-02-11T10:40:13;101401.06;;;7.73;41.04
17311;BME280;8773;43.300;0.394;2023-02-11T10:42:43;101402.94;;;7.85;41.24
17311;BME280;8773;43.300;0.394;2023-02-11T10:45:17;101403.00;;;7.98;40.53
17311;BME280;8773;43.300;0.394;2023-02-11T10:47:45;101396.03;;;8.09;40.08
17311;BME280;8773;43.300;0.394;2023-02-11T10:50:21;101400.66;;;8.20;40.21
17311;BME280;8773;43.300;0.394;2023-02-11T10:52:50;101401.81;;;8.30;39.66
17311;BME280;8773;43.300;0.394;2023-02-11T10:55:19;101399.91;;;8.32;38.28
17311;BME280;8773;43.300;0.394;2023-02-11T10:57:54;101407.59;;;8.37;37.18
17311;BME280;8773;43.300;0.394;2023-02-11T11:00:33;101407.84;;;8.47;37.00
17311;BME280;8773;43.300;0.394;2023-02-11T11:03:06;101393.13;;;8.54;36.83
17311;BME280;8773;43.300;0.394;2023-02-11T11:05:48;101401.38;;;8.63;36.93
17311;BME280;8773;43.300;0.394;2023-02-11T11:08:17;101394.28;;;8.76;36.59
17311;BME280;8773;43.300;0.394;2023-02-11T11:10:47;101386.31;;;8.89;36.73
17311;BME280;8773;43.300;0.394;2023-02-11T11:13:27;101382.13;;;8.98;37.04
17311;BME280;8773;43.300;0.394;2023-02-11T11:16:17;101380.44;;;9.09;36.96
17311;BME280;8773;43.300;0.394;2023-02-11T11:18:47;101375.34;;;9.19;35.94
17311;BME280;8773;43.300;0.394;2023-02-11T11:21:19;101366.69;;;9.28;36.52
17311;BME280;8773;43.300;0.394;2023-02-11T11:23:52;101358.28;;;9.34;35.97
17311;BME280;8773;43.300;0.394;2023-02-11T11:26:21;101354.81;;;9.45;35.98
17311;BME280;8773;43.300;0.394;2023-02-11T11:28:53;101355.03;;;9.55;35.97
17311;BME280;8773;43.300;0.394;2023-02-11T11:31:24;101352.78;;;9.61;35.55
17311;BME280;8773;43.300;0.394;2023-02-11T11:33:55;101343.25;;;9.70;35.41
17311;BME280;8773;43.300;0.394;2023-02-11T11:36:33;101340.25;;;9.74;35.79
17311;BME280;8773;43.300;0.394;2023-02-11T11:39:16;101334.13;;;9.85;35.63
17311;BME280;8773;43.300;0.394;2023-02-11T11:41:56;101333.88;;;9.64;34.19
17311;BME280;8773;43.300;0.394;2023-02-11T11:44:29;101325.56;;;9.20;34.94
17311;BME280;8773;43.300;0.394;2023-02-11T11:47:20;101317.59;;;9.43;35.72
17311;BME280;8773;43.300;0.394;2023-02-11T11:50:08;101312.59;;;9.39;35.22
17311;BME280;8773;43.300;0.394;2023-02-11T11:52:44;101312.69;;;9.50;35.70
17311;BME280;8773;43.300;0.394;2023-02-11T11:55:16;101314.41;;;9.88;35.35
17311;BME280;8773;43.300;0.394;2023-02-11T11:57:46;101309.66;;;10.04;35.14
17311;BME280;8773;43.300;0.394;2023-02-11T12:00:19;101314.59;;;9.97;34.48
17311;BME280;8773;43.300;0.394;2023-02-11T12:03:18;101297.84;;;10.19;34.36
17311;BME280;8773;43.300;0.394;2023-02-11T12:06:06;101293.53;;;10.40;34.43
17311;BME280;8773;43.300;0.394;2023-02-11T12:08:47;101290.84;;;10.40;33.98
17311;BME280;8773;43.300;0.394;2023-02-11T12:11:22;101272.41;;;10.37;33.83
17311;BME280;8773;43.300;0.394;2023-02-11T12:14:02;101280.41;;;10.37;33.09
17311;BME280;8773;43.300;0.394;2023-02-11T12:16:38;101273.44;;;10.59;34.74
17311;BME280;8773;43.300;0.394;2023-02-11T12:22:25;101267.63;;;10.87;34.57
17311;BME280;8773;43.300;0.394;2023-02-11T12:27:55;101270.56;;;10.95;34.25
17311;BME280;8773;43.300;0.394;2023-02-11T12:30:42;101264.25;;;11.07;33.64
17311;BME280;8773;43.300;0.394;2023-02-11T12:33:26;101264.94;;;11.21;34.19
17311;BME280;8773;43.300;0.394;2023-02-11T12:36:01;101263.53;;;11.39;33.57
17311;BME280;8773;43.300;0.394;2023-02-11T12:38:40;101253.53;;;11.41;33.43
17311;BME280;8773;43.300;0.394;2023-02-11T12:41:30;101248.44;;;11.38;32.09
17311;BME280;8773;43.300;0.394;2023-02-11T12:44:24;101249.44;;;11.26;32.11
17311;BME280;8773;43.300;0.394;2023-02-11T12:47:02;101248.81;;;11.33;32.85
17311;BME280;8773;43.300;0.394;2023-02-11T12:49:54;101239.31;;;11.52;31.92
17311;BME280;8773;43.300;0.394;2023-02-11T12:52:38;101238.66;;;11.59;31.29
17311;BME280;8773;43.300;0.394;2023-02-11T12:55:18;101226.34;;;11.68;32.18
17311;BME280;8773;43.300;0.394;2023-02-11T12:57:49;101223.19;;;11.74;31.57
17311;BME280;8773;43.300;0.394;2023-02-11T13:00:19;101224.63;;;11.78;32.11
17311;BME280;8773;43.300;0.394;2023-02-11T13:23:21;101174.66;;;12.20;nan
17311;BME280;8773;43.300;0.394;2023-02-11T13:25:54;101190.19;;;12.05;nan
17311;BME280;8773;43.300;0.394;2023-02-11T13:28:35;101185.63;;;12.17;nan
17311;BME280;8773;43.300;0.394;2023-02-11T13:31:08;101181.91;;;12.29;nan
17311;BME280;8773;43.300;0.394;2023-02-11T13:33:39;101176.72;;;12.37;nan
17311;BME280;8773;43.300;0.394;2023-02-11T13:36:12;101182.97;;;12.48;nan
17311;BME280;8773;43.300;0.394;2023-02-11T13:38:50;101178.03;;;12.64;nan
17311;BME280;8773;43.300;0.394;2023-02-11T13:41:23;101172.84;;;12.72;nan
17311;BME280;8773;43.300;0.394;2023-02-11T13:44:03;101172.66;;;12.64;nan
17311;BME280;8773;43.300;0.394;2023-02-11T13:46:49;101174.81;;;12.49;nan
17311;BME280;8773;43.300;0.394;2023-02-11T13:49:22;101145.47;;;12.48;nan
17311;BME280;8773;43.300;0.394;2023-02-11T13:51:52;101170.97;;;12.63;nan
17311;BME280;8773;43.300;0.394;2023-02-11T13:54:25;101156.78;;;12.51;nan
17311;BME280;8773;43.300;0.394;2023-02-11T13:57:15;101164.53;;;12.75;nan
17311;BME280;8773;43.300;0.394;2023-02-11T13:59:51;101165.91;;;12.69;nan
17311;BME280;8773;43.300;0.394;2023-02-11T14:02:23;101164.84;;;12.91;nan